Latest Weather Observations for Newman Airport

IDW60801

Issued at 2:33 am WST Tuesday 30 May 2017 (issued every 30 minutes, with the page automatically refreshed every 10 minutes)

About weather observations | Map of weather stations | Latest weather observations for WA | Other Formats
Station Details ID: 007176 Name: NEWMAN AERO Lat: -23.42 Lon: 119.80 Height: 524.0 m
Data from the previous 72 hours. | See also: Recent months at Newman Airport
Date/Time
WST
Temp
°C
App
Temp
°C
Dew
Point
°C
Rel
Hum
%
Delta-T
°C
Wind Press
QNH
hPa
Press
MSL
hPa
Rain since
9am
mm
Dir  Spd
km/h
Gust
km/h
Spd
kts
Gust
kts
30/02:30am 12.1 10.6 10.7 91 0.7 SW 9 11 5 6 1021.6 1019.7 0.0
30/02:00am 11.9 11.0 10.8 93 0.6 W 6 9 3 5 1021.3 1019.4 0.0
30/01:30am 12.1 11.1 11.0 93 0.6 W 7 9 4 5 1021.3 1019.4 0.0
30/01:00am 12.2 11.4 10.9 92 0.7 W 6 9 3 5 1021.7 1019.8 0.0
30/12:30am 12.6 13.0 11.3 92 0.7 CALM 0 0 0 0 1021.6 1019.7 0.0
30/12:00am 13.0 12.4 11.6 91 0.8 SSW 6 7 3 4 1021.5 1019.6 0.0
 
Date/Time
WST
Temp
°C
App
Temp
°C
Dew
Point
°C
Rel
Hum
%
Delta-T
°C
Wind Press
QNH
hPa
Press
MSL
hPa
Rain since
9am
mm
Dir  Spd
km/h
Gust
km/h
Spd
kts
Gust
kts
29/11:30pm 13.2 12.6 11.8 91 0.8 S 6 7 3 4 1021.5 1019.6 0.0
29/11:22pm 13.2 13.8 11.9 92 0.7 CALM 0 0 0 0 1021.5 1019.6 0.0
29/11:09pm 13.3 14.0 12.2 93 0.6 CALM 0 0 0 0 1021.6 1019.7 0.0
29/11:00pm 13.5 14.3 12.4 93 0.6 CALM 0 0 0 0 1021.5 1019.6 0.0
29/10:30pm 13.8 14.6 12.4 91 0.8 CALM 0 0 0 0 1021.5 1019.6 0.0
29/10:00pm 14.5 15.2 12.2 86 1.3 CALM 0 0 0 0 1021.6 1019.7 0.0
29/09:30pm 15.5 14.9 11.7 78 2.1 SE 6 9 3 5 1021.3 1019.4 0.0
29/09:00pm 16.1 15.4 11.9 76 2.3 SE 7 11 4 6 1021.2 1019.3 0.0
29/08:30pm 16.6 15.5 12.0 74 2.6 SE 9 11 5 6 1021.1 1019.2 0.0
29/08:00pm 17.2 16.1 11.9 71 3.0 SE 9 13 5 7 1021.1 1019.2 0.0
29/07:30pm 17.4 16.3 12.1 71 3.0 SSE 9 11 5 6 1020.9 1019.0 0.0
29/07:00pm 18.5 16.9 11.6 64 3.9 SSE 11 13 6 7 1020.5 1018.6 0.0
29/06:30pm 19.0 17.8 11.6 62 4.2 SSE 9 11 5 6 1020.3 1018.4 0.0
29/06:00pm 19.8 18.4 11.0 57 4.9 SSE 9 13 5 7 1019.9 1018.0 0.0
29/05:30pm 21.3 20.0 11.1 52 5.8 SSE 9 11 5 6 1019.5 1017.5 0.0
29/05:00pm 23.3 21.0 9.0 40 7.9 SSE 11 15 6 8 1019.1 1017.2 0.0
29/04:30pm 24.0 21.3 8.8 38 8.4 ESE 13 17 7 9 1018.9 1017.0 0.0
29/04:00pm 24.2 21.3 8.2 36 8.7 SE 13 20 7 11 1018.9 1017.0 0.0
29/03:30pm 24.5 22.3 8.0 35 9.0 E 9 19 5 10 1019.0 1017.1 0.0
29/03:00pm 24.7 22.0 9.0 37 8.7 ESE 13 22 7 12 1019.1 1017.2 0.0
29/02:30pm 24.0 21.2 8.4 37 8.5 ESE 13 20 7 11 1019.2 1017.3 0.0
29/02:00pm 23.9 21.5 8.7 38 8.3 ESE 11 28 6 15 1019.2 1017.3 0.0
29/01:30pm 23.5 20.6 9.5 41 7.8 ESE 15 26 8 14 1019.6 1017.6 0.0
29/01:00pm 23.3 22.0 11.4 47 6.8 ESE 9 22 5 12 1020.0 1018.1 0.0
29/12:30pm 22.8 20.5 10.3 45 7.0 ESE 13 20 7 11 1020.5 1018.6 0.0
29/12:00pm 22.0 20.2 10.8 49 6.3 ESE 11 17 6 9 1020.8 1018.9 0.0
29/11:30am 21.4 19.8 11.4 53 5.7 ESE 11 17 6 9 1021.5 1019.6 0.0
29/11:00am 20.5 20.0 12.0 58 4.8 SE 6 11 3 6 1022.0 1020.1 0.0
29/10:30am 19.4 18.2 11.7 61 4.4 SE 9 13 5 7 1022.2 1020.3 0.0
29/10:00am 18.3 17.3 12.3 68 3.4 SE 9 13 5 7 1022.6 1020.7 0.0
29/09:30am 17.2 16.6 12.3 73 2.8 ESE 7 11 4 6 1022.7 1020.8 0.0
29/09:00am 15.5 14.7 11.7 78 2.1 SE 7 9 4 5 1022.7 1020.8 9.4
29/08:30am 13.9 13.4 11.9 88 1.1 S 6 7 3 4 1022.6 1020.7 9.4
29/08:00am 12.7 11.8 11.3 91 0.8 SW 7 9 4 5 1022.4 1020.5 9.4
29/07:30am 11.4 10.3 10.8 96 0.3 WSW 7 11 4 6 1022.1 1020.2 9.2
29/07:00am 10.2 9.0 9.7 97 0.3 WSW 6 7 3 4 1021.8 1019.9 9.2
29/06:30am 9.7 7.8 9.2 97 0.3 SW 9 11 5 6 1021.6 1019.7 9.2
29/06:00am 9.9 8.5 9.4 97 0.3 WSW 7 9 4 5 1021.5 1019.6 9.2
29/05:30am 9.8 8.5 9.3 97 0.3 SW 6 9 3 5 1021.1 1019.2 9.2
29/05:00am 9.6 8.1 9.1 97 0.3 WSW 7 9 4 5 1020.9 1019.0 9.2
29/04:30am 9.7 8.4 9.2 97 0.3 WNW 6 7 3 4 1020.9 1019.0 9.2
29/04:00am 10.1 8.9 9.6 97 0.3 NW 6 7 3 4 1021.2 1019.3 9.2
29/03:30am 10.2 9.0 9.6 96 0.3 SW 6 6 3 3 1021.3 1019.4 9.2
29/03:00am 10.8 9.8 10.3 97 0.3 SSW 6 7 3 4 1021.3 1019.4 9.2
29/02:30am 10.7 9.1 10.2 97 0.3 SSW 9 9 5 5 1021.7 1019.8 9.2
29/02:00am 10.7 9.5 10.2 97 0.3 WSW 7 9 4 5 1021.8 1019.9 9.2
29/01:30am 10.7 9.5 10.2 97 0.3 WSW 7 9 4 5 1021.6 1019.7 9.2
29/01:00am 10.8 9.6 10.3 97 0.3 WSW 7 7 4 4 1021.5 1019.6 9.2
29/12:30am 11.0 10.1 10.5 97 0.3 SW 6 9 3 5 1021.3 1019.4 9.2
29/12:00am 11.1 11.3 10.5 96 0.3 CALM 0 0 0 0 1021.2 1019.3 9.2
 
Date/Time
WST
Temp
°C
App
Temp
°C
Dew
Point
°C
Rel
Hum
%
Delta-T
°C
Wind Press
QNH
hPa
Press
MSL
hPa
Rain since
9am
mm
Dir  Spd
km/h
Gust
km/h
Spd
kts
Gust
kts
28/11:30pm 11.6 11.9 11.0 96 0.3 CALM 0 0 0 0 1021.3 1019.4 9.2
28/11:00pm 11.5 10.7 10.9 96 0.3 SW 6 6 3 3 1021.6 1019.7 9.2
28/10:30pm 11.8 11.0 11.2 96 0.3 SW 6 7 3 4 1021.6 1019.7 9.2
28/10:00pm 12.0 11.1 11.4 96 0.3 SW 7 9 4 5 1021.6 1019.7 9.2
28/09:30pm 12.1 12.2 11.5 96 0.3 NW 2 7 1 4 1021.8 1019.9 9.2
28/09:00pm 12.5 13.0 11.7 95 0.4 CALM 0 0 0 0 1021.8 1019.9 9.2
28/08:30pm 12.8 13.4 12.0 95 0.4 CALM 0 0 0 0 1021.7 1019.8 9.2
28/08:00pm 12.9 12.4 12.0 94 0.5 N 6 7 3 4 1021.7 1019.8 9.2
28/07:30pm 13.7 14.5 12.4 92 0.7 CALM 0 6 0 3 1021.3 1019.4 9.2
28/07:00pm 14.0 13.4 12.4 90 0.9 SE 7 11 4 6 1021.1 1019.2 9.2
28/06:30pm 14.4 13.6 12.8 90 0.9 SE 9 11 5 6 1020.8 1018.9 9.2
28/06:00pm 14.8 13.9 12.7 87 1.2 SE 9 11 5 6 1020.7 1018.8 9.2
28/05:30pm 15.3 14.8 12.8 85 1.4 SE 7 11 4 6 1020.5 1018.6 9.2
28/05:00pm 16.0 14.0 12.7 81 1.9 SE 15 20 8 11 1020.1 1018.2 9.2
28/04:30pm 16.0 14.3 13.5 85 1.4 SSE 15 20 8 11 1019.7 1017.7 9.2
28/04:00pm 16.6 14.9 13.7 83 1.7 S 15 20 8 11 1019.5 1017.5 9.2
28/03:30pm 16.1 15.3 14.1 88 1.2 S 11 15 6 8 1019.5 1017.5 9.2
28/03:00pm 15.2 12.2 13.6 90 0.9 ESE 22 37 12 20 1018.0 1016.0 9.2
28/02:30pm 15.1 10.8 13.3 89 1.0 NE 28 39 15 21 1018.5 1016.6 9.2
28/02:17pm 14.8 11.8 13.8 94 0.6 ENE 22 33 12 18 1019.2 1017.3 9.0
28/02:04pm 14.8 14.7 13.8 94 0.6 SSW 7 11 4 6 1021.2 1019.3 8.4
28/02:00pm 14.8 14.7 13.8 94 0.6 SSW 7 11 4 6 1021.3 1019.4 8.2
28/01:32pm 14.8 12.7 13.7 93 0.6 S 17 24 9 13 1021.5 1019.6 7.0
28/01:30pm 14.8 12.7 13.7 93 0.6 S 17 24 9 13 1021.6 1019.7 6.8
28/01:00pm 15.0 14.3 14.2 95 0.5 S 11 19 6 10 1021.7 1019.8 6.6
28/12:54pm 14.9 13.4 14.1 95 0.5 SSE 15 24 8 13 1021.6 1019.7 6.6
28/12:34pm 14.7 13.0 13.7 94 0.6 SSE 15 19 8 10 1021.8 1019.9 6.0
28/12:30pm 14.7 13.4 13.7 94 0.6 SSE 13 19 7 10 1022.1 1020.2 5.8
28/12:12pm 14.8 14.3 13.8 94 0.6 S 9 13 5 7 1022.6 1020.7 4.4
28/12:00pm 14.8 13.9 13.8 94 0.6 SSW 11 15 6 8 1022.7 1020.8 3.4
28/11:50am 15.0 14.6 14.0 94 0.6 SW 9 13 5 7 1023.0 1021.1 2.6
28/11:35am 15.1 13.8 13.6 91 0.9 SW 13 20 7 11 1023.0 1021.1 1.4
28/11:30am 15.2 13.9 13.6 90 0.9 SSW 13 20 7 11 1023.0 1021.1 0.8
28/11:00am 16.5 13.2 12.8 79 2.1 SSE 22 33 12 18 1022.3 1020.4 0.0
28/10:30am 17.1 13.4 12.6 75 2.6 SSE 24 39 13 21 1022.4 1020.5 0.0
28/10:00am 17.4 13.8 12.9 75 2.6 S 24 32 13 17 1022.9 1021.0 0.0
28/09:30am 17.3 14.6 13.0 76 2.5 S 19 28 10 15 1022.9 1021.0 0.0
28/09:00am 17.0 14.0 12.7 76 2.4 SSE 20 33 11 18 1022.6 1020.7 1.2
28/08:30am 16.6 13.3 12.9 79 2.1 SSE 22 35 12 19 1022.1 1020.2 1.2
28/08:00am 16.3 14.4 13.0 81 1.9 S 15 20 8 11 1022.1 1020.2 1.2
28/07:30am 16.1 13.3 12.7 80 1.9 S 19 30 10 16 1021.5 1019.6 1.2
28/07:00am 16.3 13.9 12.5 78 2.1 SSE 17 24 9 13 1020.9 1019.0 1.2
28/06:30am 15.8 13.4 12.7 82 1.8 SSW 17 24 9 13 1020.9 1019.0 1.2
28/06:00am 16.4 13.9 12.4 77 2.3 SSW 17 24 9 13 1020.5 1018.6 0.8
28/05:30am 16.8 14.7 11.1 69 3.1 SW 13 17 7 9 1020.0 1018.1 0.0
28/05:00am 16.2 15.4 11.2 72 2.8 SW 6 9 3 5 1019.3 1017.4 0.0
28/04:30am 16.3 14.9 10.8 70 3.0 SE 9 17 5 9 1019.0 1017.1 0.0
28/04:00am 16.4 15.4 10.9 70 3.0 SE 7 11 4 6 1019.1 1017.2 0.0
28/03:30am 15.8 14.7 10.8 72 2.7 ESE 7 11 4 6 1019.3 1017.4 0.0
28/03:00am 15.5 14.4 10.7 73 2.6 SSE 7 9 4 5 1019.1 1017.2 0.0
28/02:30am 15.8 15.3 10.6 71 2.8 SSW 4 9 2 5 1019.2 1017.3 0.0
28/02:00am 16.6 15.7 10.5 67 3.3 SE 6 7 3 4 1019.3 1017.4 0.0
28/01:30am 17.1 16.0 10.5 65 3.6 S 7 9 4 5 1019.6 1017.6 0.0
28/01:00am 18.2 16.7 10.6 61 4.2 SSE 9 13 5 7 1019.6 1017.6 0.0
28/12:30am 18.9 16.7 10.7 59 4.5 S 13 19 7 10 1019.2 1017.3 0.0
28/12:00am 19.9 16.4 10.3 54 5.3 S 19 26 10 14 1019.1 1017.2 0.0
 
Date/Time
WST
Temp
°C
App
Temp
°C
Dew
Point
°C
Rel
Hum
%
Delta-T
°C
Wind Press
QNH
hPa
Press
MSL
hPa
Rain since
9am
mm
Dir  Spd
km/h
Gust
km/h
Spd
kts
Gust
kts
27/11:30pm 19.2 16.6 9.4 53 5.3 SW 13 17 7 9 1019.0 1017.1 0.0
27/11:00pm 19.0 16.7 8.9 52 5.4 SW 11 17 6 9 1018.8 1016.9 0.0
27/10:30pm 18.7 16.7 8.7 52 5.3 W 9 9 5 5 1018.7 1016.8 0.0
27/10:00pm 19.8 17.4 8.5 48 6.0 SW 11 13 6 7 1018.5 1016.6 0.0
27/09:30pm 19.5 18.1 8.8 50 5.7 SSW 6 9 3 5 1018.4 1016.5 0.0
27/09:00pm 18.9 17.6 9.1 53 5.3 S 6 9 3 5 1017.9 1015.9 0.0
27/08:30pm 20.4 19.8 9.0 48 6.2 WSW 2 6 1 3 1017.6 1015.6 0.0
27/08:00pm 21.8 20.8 8.7 43 7.1 ESE 4 9 2 5 1017.4 1015.4 0.0
27/07:30pm 22.2 20.7 8.3 41 7.5 SSE 6 7 3 4 1017.1 1015.2 0.0
27/07:00pm 22.6 21.2 8.7 41 7.6 SSE 6 9 3 5 1016.8 1014.9 0.0
27/06:30pm 22.8 20.8 8.5 40 7.8 ESE 9 13 5 7 1016.8 1014.9 0.0
27/06:00pm 23.6 20.9 7.3 35 8.7 SW 11 17 6 9 1016.4 1014.5 0.0
27/05:30pm 24.1 20.5 8.5 37 8.5 SW 17 22 9 12 1016.3 1014.3 0.0
27/05:00pm 24.2 21.5 9.0 38 8.4 WSW 13 19 7 10 1016.1 1014.1 0.0
27/04:30pm 24.3 20.3 9.1 38 8.4 W 20 32 11 17 1015.9 1013.9 0.0
27/04:00pm 25.4 21.9 8.8 35 9.2 WNW 17 32 9 17 1015.9 1013.9 0.0
27/03:30pm 28.9 25.6 6.3 24 12.2 NE 13 19 7 10 1015.4 1013.4 0.0
27/03:00pm 29.3 25.9 6.0 23 12.6 ENE 13 19 7 10 1015.4 1013.4 0.0
27/02:30pm 28.8 26.8 6.2 24 12.2 ENE 6 13 3 7 1015.5 1013.5 0.0
27/02:00pm 29.2 26.2 6.0 23 12.5 N 11 20 6 11 1015.6 1013.6 0.0
27/01:30pm 29.1 27.0 6.5 24 12.3 NNE 7 15 4 8 1016.0 1014.0 0.0
27/01:00pm 28.9 26.0 8.0 27 11.6 NNE 13 20 7 11 1016.2 1014.2 0.0
27/12:30pm 28.3 25.0 8.1 28 11.2 NE 15 30 8 16 1016.6 1014.7 0.0
27/12:00pm 27.8 24.9 8.1 29 10.9 NNE 13 20 7 11 1017.0 1015.1 0.0
27/11:30am 27.4 24.9 8.3 30 10.6 NE 11 17 6 9 1017.4 1015.4 0.0
27/11:00am 27.0 24.3 8.9 32 10.1 ENE 13 19 7 10 1018.1 1016.2 0.0
27/10:30am 25.7 23.1 9.5 36 9.1 ENE 13 20 7 11 1018.2 1016.3 0.0
27/10:00am 24.5 21.4 8.9 37 8.6 E 15 20 8 11 1018.6 1016.7 0.0
27/09:30am 24.5 21.5 9.3 38 8.5 ENE 15 20 8 11 1018.7 1016.8 0.0
27/09:00am 23.3 22.4 10.7 45 7.1 E 6 9 3 5 1018.6 1016.7 0.0
27/08:30am 20.5 20.6 10.0 51 5.8 CALM 0 0 0 0 1018.6 1016.7 0.0
27/08:00am 17.4 16.4 10.3 63 3.9 WSW 6 7 3 4 1018.6 1016.7 0.0
27/07:30am 15.9 16.0 10.0 68 3.2 CALM 0 0 0 0 1018.4 1016.5 0.0
27/07:00am 13.4 11.8 8.9 74 2.3 WSW 7 9 4 5 1018.2 1016.3 0.0
27/06:30am 13.4 13.2 9.1 75 2.2 CALM 0 0 0 0 1017.9 1015.9 0.0
27/06:00am 13.0 11.5 9.1 77 2.0 WSW 7 11 4 6 1017.5 1015.5 0.0
27/05:30am 13.6 13.4 8.9 73 2.4 CALM 0 0 0 0 1017.1 1015.2 0.0
27/05:00am 13.8 13.6 9.0 73 2.5 CALM 0 6 0 3 1016.8 1014.9 0.0
27/04:30am 14.0 13.8 9.0 72 2.6 CALM 0 0 0 0 1016.7 1014.8 0.0
27/04:00am 14.7 14.5 9.1 69 2.9 CALM 0 2 0 1 1016.6 1014.7 0.0
27/03:30am 15.0 14.8 9.1 68 3.1 CALM 0 0 0 0 1016.7 1014.8 0.0
27/03:00am 15.9 15.8 9.3 65 3.5 CALM 0 7 0 4 1016.8 1014.9 0.0

Other Formats:

Comma delimited format used in spreadsheet applications
http://www.bom.gov.au/fwo/IDW60801/IDW60801.94317.axf

JavaScript Object Notation format (JSON) in row-major order
http://www.bom.gov.au/fwo/IDW60801/IDW60801.94317.json